createdAt,value
2023-04-09T00:02:52.356Z,70.37
2023-04-09T00:07:54.308Z,71.00
2023-04-09T00:12:56.054Z,71.75
2023-04-09T00:17:57.936Z,72.50
2023-04-09T00:22:59.795Z,72.79
2023-04-09T00:28:01.866Z,72.95
2023-04-09T00:33:03.764Z,73.47
2023-04-09T00:38:05.586Z,73.85
2023-04-09T00:43:07.329Z,73.94
2023-04-09T00:48:09.202Z,74.90
2023-04-09T00:53:12.919Z,74.50
2023-04-09T00:58:15.364Z,75.08
2023-04-09T01:03:17.351Z,75.18
2023-04-09T01:09:11.541Z,75.37
2023-04-09T01:14:37.693Z,75.19
2023-04-09T01:20:08.492Z,75.22
2023-04-09T01:25:58.155Z,74.44
2023-04-09T01:31:09.254Z,74.99
2023-04-09T01:36:12.684Z,75.45
2023-04-09T01:41:21.725Z,75.09
2023-04-09T01:46:25.961Z,74.93
2023-04-09T01:51:28.388Z,75.35
2023-04-09T01:56:41.845Z,74.91
2023-04-09T02:01:58.254Z,74.62
2023-04-09T02:07:38.052Z,74.67
2023-04-09T02:12:48.745Z,75.03
2023-04-09T02:17:50.779Z,74.85
2023-04-09T02:22:52.625Z,75.16
2023-04-09T02:27:54.443Z,74.91
2023-04-09T02:32:56.169Z,75.81
2023-04-09T02:37:57.886Z,76.33
2023-04-09T02:42:59.647Z,75.84
2023-04-09T02:48:02.019Z,76.39
2023-04-09T02:53:04.051Z,77.09
2023-04-09T02:58:05.901Z,77.28
2023-04-09T03:03:07.858Z,77.20
2023-04-09T03:08:09.642Z,77.32
2023-04-09T03:13:11.370Z,77.61
2023-04-09T03:18:13.121Z,78.33
2023-04-09T03:23:15.295Z,79.52
2023-04-09T03:28:17.037Z,80.90
2023-04-09T03:33:19.603Z,82.29
2023-04-09T03:38:21.507Z,83.37
2023-04-09T03:43:23.278Z,85.47
2023-04-09T03:48:25.177Z,87.27
2023-04-09T03:53:26.895Z,88.18
2023-04-09T03:58:28.700Z,89.32
2023-04-09T04:03:30.855Z,89.61
2023-04-09T04:08:32.723Z,89.45
2023-04-09T04:13:34.569Z,89.14
2023-04-09T04:18:37.431Z,89.89
2023-04-09T04:23:39.157Z,91.52
2023-04-09T04:28:41.406Z,91.66
2023-04-09T04:33:43.399Z,91.16
2023-04-09T04:38:45.225Z,91.19
2023-04-09T04:43:47.766Z,91.59
2023-04-09T04:48:49.603Z,92.48
2023-04-09T04:53:51.404Z,92.51
2023-04-09T04:58:53.372Z,93.35
2023-04-09T05:03:55.653Z,93.69
2023-04-09T05:08:58.166Z,93.54
2023-04-09T05:13:59.922Z,93.95
2023-04-09T05:19:01.717Z,93.87
2023-04-09T05:24:03.813Z,93.28
2023-04-09T05:29:05.660Z,93.10
2023-04-09T05:34:07.448Z,92.30
2023-04-09T05:39:09.346Z,92.08
2023-04-09T05:44:14.097Z,91.91
2023-04-09T05:49:16.177Z,91.58
2023-04-09T05:54:18.095Z,90.62
2023-04-09T05:59:19.857Z,90.72
2023-04-09T06:04:21.949Z,90.90
2023-04-09T06:09:23.788Z,91.02
2023-04-09T06:14:25.603Z,90.58
2023-04-09T06:19:27.845Z,90.75
2023-04-09T06:24:33.215Z,90.53
2023-04-09T06:29:35.034Z,89.85
2023-04-09T06:34:36.755Z,89.31
2023-04-09T06:39:40.373Z,89.13
2023-04-09T06:44:44.268Z,87.97
2023-04-09T06:49:46.120Z,86.96
2023-04-09T06:54:47.927Z,85.94
2023-04-09T06:59:49.680Z,85.87
2023-04-09T07:04:51.529Z,85.79
2023-04-09T07:09:53.929Z,85.34
2023-04-09T07:15:06.146Z,84.47
2023-04-09T07:20:08.590Z,84.42
2023-04-09T07:25:10.683Z,84.07
2023-04-09T07:30:12.599Z,84.41
2023-04-09T07:35:14.412Z,84.77
2023-04-09T07:40:16.427Z,85.01
2023-04-09T07:45:18.677Z,84.69
2023-04-09T07:50:20.849Z,85.36
2023-04-09T07:55:22.819Z,85.35
2023-04-09T08:00:24.951Z,85.30
2023-04-09T08:05:27.093Z,84.45
2023-04-09T08:10:28.822Z,83.85
2023-04-09T08:15:30.671Z,83.69
2023-04-09T08:20:33.030Z,83.75
2023-04-09T08:25:34.759Z,83.52
2023-04-09T08:30:36.618Z,82.55
2023-04-09T08:35:40.375Z,81.60
2023-04-09T08:40:42.223Z,81.54
2023-04-09T08:45:44.230Z,80.71
2023-04-09T08:50:46.578Z,80.90
2023-04-09T08:55:48.786Z,80.23
2023-04-09T09:00:50.762Z,78.60
2023-04-09T09:05:52.481Z,78.63
2023-04-09T09:10:54.261Z,77.53
2023-04-09T09:16:14.620Z,76.97
2023-04-09T09:21:19.408Z,77.40
2023-04-09T09:26:32.059Z,76.37
2023-04-09T09:31:51.683Z,76.42
2023-04-09T09:36:53.626Z,76.07
2023-04-09T09:42:08.448Z,75.59
2023-04-09T09:47:16.091Z,74.10
2023-04-09T09:52:27.214Z,73.14
2023-04-09T09:57:32.531Z,70.59
2023-04-09T10:02:48.145Z,67.04
2023-04-09T10:07:50.237Z,62.90
2023-04-09T10:12:52.689Z,63.78
2023-04-09T10:17:56.670Z,65.34
2023-04-09T10:23:09.473Z,65.79
2023-04-09T10:28:18.928Z,64.93
2023-04-09T10:33:27.909Z,63.51
2023-04-09T10:38:48.756Z,63.28
2023-04-09T10:43:50.844Z,61.98
2023-04-09T10:49:22.271Z,62.41
2023-04-09T10:54:33.434Z,63.28
2023-04-09T10:59:50.455Z,63.58
2023-04-09T11:05:24.864Z,62.25
2023-04-09T11:10:26.758Z,63.99
2023-04-09T11:15:29.167Z,63.44
2023-04-09T11:20:33.660Z,61.99
2023-04-09T11:25:35.621Z,61.55
2023-04-09T11:30:37.562Z,60.08
2023-04-09T11:35:39.400Z,60.01
2023-04-09T11:40:48.694Z,59.38
2023-04-09T11:45:51.556Z,58.97
2023-04-09T11:50:53.798Z,56.39
2023-04-09T11:55:56.267Z,54.93
2023-04-09T12:01:01.204Z,54.32
2023-04-09T12:06:06.089Z,54.18
2023-04-09T12:11:13.272Z,54.42
2023-04-09T12:16:20.543Z,52.59
2023-04-09T12:21:27.080Z,51.84
2023-04-09T12:26:28.846Z,51.96
2023-04-09T12:31:30.781Z,50.33
2023-04-09T12:36:32.687Z,50.23
2023-04-09T12:41:34.602Z,50.08
2023-04-09T12:46:37.112Z,51.62
2023-04-09T12:51:39.717Z,50.63
2023-04-09T12:56:42.364Z,49.92
2023-04-09T13:01:44.227Z,50.67
2023-04-09T13:06:46.585Z,49.96
2023-04-09T13:11:48.320Z,51.68
2023-04-09T13:16:52.358Z,51.00
2023-04-09T13:21:54.156Z,51.53
2023-04-09T13:26:55.915Z,51.03
2023-04-09T13:31:58.805Z,50.48
2023-04-09T13:37:02.422Z,51.84
2023-04-09T13:42:12.628Z,51.85
2023-04-09T13:47:17.694Z,51.25
2023-04-09T13:52:19.640Z,51.36
2023-04-09T13:57:21.638Z,51.41
2023-04-09T14:02:23.708Z,49.43
2023-04-09T14:07:25.883Z,49.78
2023-04-09T14:12:27.615Z,50.67
2023-04-09T14:17:29.434Z,50.37
2023-04-09T14:22:31.355Z,50.87
2023-04-09T14:27:33.159Z,52.53
2023-04-09T14:32:34.971Z,52.22
2023-04-09T14:37:37.612Z,51.33
2023-04-09T14:42:41.464Z,51.36
2023-04-09T14:47:43.263Z,51.18
2023-04-09T14:52:48.419Z,50.80
2023-04-09T14:57:50.246Z,50.58
2023-04-09T15:02:52.216Z,49.59
2023-04-09T15:07:55.841Z,49.73
2023-04-09T15:12:57.621Z,50.55
2023-04-09T15:18:05.491Z,51.74
2023-04-09T15:23:07.411Z,53.11
2023-04-09T15:28:09.258Z,54.13
2023-04-09T15:33:12.003Z,53.24
2023-04-09T15:38:13.766Z,54.24
2023-04-09T15:43:15.491Z,55.87
2023-04-09T15:48:19.111Z,57.73
2023-04-09T15:53:23.753Z,58.89
2023-04-09T15:58:25.878Z,58.13
2023-04-09T16:03:27.763Z,58.11
2023-04-09T16:08:29.532Z,58.99
2023-04-09T16:13:31.389Z,58.42
2023-04-09T16:18:34.047Z,57.78
2023-04-09T16:23:35.841Z,57.43
2023-04-09T16:28:37.744Z,57.12
2023-04-09T16:33:39.486Z,56.72
2023-04-09T16:38:41.489Z,56.10
2023-04-09T16:43:43.260Z,57.25
2023-04-09T16:48:45.233Z,57.69
2023-04-09T16:53:47.067Z,57.19
2023-04-09T16:58:49.164Z,57.99
2023-04-09T17:03:51.406Z,57.83
2023-04-09T17:08:53.611Z,56.72
2023-04-09T17:13:55.643Z,57.50
2023-04-09T17:18:57.713Z,57.46
2023-04-09T17:24:01.742Z,58.33
2023-04-09T17:29:03.557Z,58.86
2023-04-09T17:34:05.425Z,59.42
2023-04-09T17:39:07.202Z,61.05
2023-04-09T17:44:09.037Z,60.73
2023-04-09T17:49:10.854Z,61.82
2023-04-09T17:54:13.068Z,62.47
2023-04-09T17:59:14.860Z,63.09
2023-04-09T18:04:16.844Z,63.91
2023-04-09T18:09:19.189Z,64.72
2023-04-09T18:14:20.984Z,65.25
2023-04-09T18:19:22.719Z,65.54
2023-04-09T18:24:26.218Z,65.92
2023-04-09T18:29:31.399Z,66.85
2023-04-09T18:34:33.263Z,66.38
2023-04-09T18:39:35.105Z,66.64
2023-04-09T18:44:37.600Z,66.94
2023-04-09T18:49:39.387Z,66.95
2023-04-09T18:54:41.384Z,66.69
2023-04-09T18:59:45.234Z,68.26
2023-04-09T19:04:47.706Z,68.13
2023-04-09T19:09:49.614Z,68.10
2023-04-09T19:14:51.614Z,68.31
2023-04-09T19:19:53.432Z,69.48
2023-04-09T19:24:55.444Z,69.06
2023-04-09T19:29:58.785Z,69.39
2023-04-09T19:35:00.907Z,70.04
2023-04-09T19:40:04.659Z,70.56
2023-04-09T19:45:07.505Z,70.19
2023-04-09T19:50:10.142Z,71.16
2023-04-09T19:55:12.067Z,71.55
2023-04-09T20:00:17.688Z,72.45
2023-04-09T20:05:21.034Z,72.17
2023-04-09T20:10:22.887Z,71.88
2023-04-09T20:15:24.875Z,72.03
2023-04-09T20:20:27.174Z,72.31
2023-04-09T20:25:34.988Z,73.30
2023-04-09T20:30:36.889Z,73.04
2023-04-09T20:35:38.661Z,73.33
2023-04-09T20:40:40.482Z,75.06
2023-04-09T20:45:42.483Z,75.00
2023-04-09T20:50:44.593Z,75.75
2023-04-09T20:55:46.448Z,75.26
2023-04-09T21:00:49.004Z,74.78
2023-04-09T21:05:52.070Z,75.58
2023-04-09T21:10:54.959Z,75.83
2023-04-09T21:16:00.392Z,76.17
2023-04-09T21:21:07.531Z,76.95
2023-04-09T21:26:11.313Z,76.30
2023-04-09T21:31:13.119Z,77.65
2023-04-09T21:36:15.749Z,77.16
2023-04-09T21:41:17.528Z,78.26
2023-04-09T21:46:19.361Z,77.71
2023-04-09T21:51:21.172Z,78.40
2023-04-09T21:56:23.524Z,77.87
2023-04-09T22:01:29.454Z,77.43
2023-04-09T22:06:32.162Z,78.99
2023-04-09T22:11:34.356Z,78.66
2023-04-09T22:16:36.186Z,78.84
2023-04-09T22:21:38.069Z,78.60
2023-04-09T22:26:42.550Z,79.01
2023-04-09T22:31:45.413Z,79.61
2023-04-09T22:36:47.380Z,80.70
2023-04-09T22:41:49.127Z,80.73
2023-04-09T22:46:51.334Z,80.16
2023-04-09T22:51:53.445Z,81.04
2023-04-09T22:56:56.697Z,80.95
2023-04-09T23:01:58.551Z,81.23
2023-04-09T23:07:00.793Z,80.53
2023-04-09T23:12:02.834Z,81.57
2023-04-09T23:17:04.679Z,80.94
2023-04-09T23:22:07.099Z,81.46
2023-04-09T23:27:08.869Z,81.41
2023-04-09T23:32:10.656Z,81.23
2023-04-09T23:37:12.464Z,81.31
2023-04-09T23:42:14.312Z,82.02
2023-04-09T23:47:16.380Z,82.22
2023-04-09T23:52:18.174Z,83.85
2023-04-09T23:57:19.952Z,84.71
